Time;durP1;ratioP1;P1;durP2;ratioP2;P2;SDS_P1;SDS_P2;PMS_P1;PMS_P2;Temp;Humidity;BMP_temperature;BMP_pressure;BME280_temperature;BME280_humidity;BME280_pressure;Samples;Min_cycle;Max_cycle;Signal;HPM_P1;HPM_P2
2024/01/12 00:02:19;;;;;;;26.73;14.43;;;;;;;;;;5017757;28;20238;-80
2024/01/12 00:04:46;;;;;;;25.40;14.07;;;;;;;;;;5028295;28;20294;-80
2024/01/12 00:07:12;;;;;;;27.37;14.57;;;;;;;;;;5012320;28;21449;-81
2024/01/12 00:09:38;;;;;;;26.63;15.00;;;;;;;;;;5030831;28;20186;-81
2024/01/12 00:12:05;;;;;;;25.67;15.00;;;;;;;;;;5032351;28;20205;-81
2024/01/12 00:14:31;;;;;;;26.73;15.37;;;;;;;;;;5025864;28;20202;-81
2024/01/12 00:16:57;;;;;;;27.20;15.90;;;;;;;;;;5034900;28;20779;-81
2024/01/12 00:19:23;;;;;;;23.03;14.17;;;;;;;;;;4936705;28;20198;-81
2024/01/12 00:21:49;;;;;;;25.30;14.07;;;;;;;;;;5028966;28;20179;-81
2024/01/12 00:24:15;;;;;;;26.20;15.00;;;;;;;;;;5026627;28;20207;-81
2024/01/12 00:26:41;;;;;;;24.73;14.20;;;;;;;;;;5025861;28;20201;-80
2024/01/12 00:29:09;;;;;;;26.27;15.23;;;;;;;;;;5006396;28;20197;-81
2024/01/12 00:31:35;;;;;;;28.37;16.10;;;;;;;;;;5030754;28;20491;-81
2024/01/12 00:34:01;;;;;;;27.00;15.67;;;;;;;;;;5011976;28;20214;-81
2024/01/12 00:36:27;;;;;;;29.37;15.73;;;;;;;;;;5026162;28;20207;-81
2024/01/12 00:38:53;;;;;;;23.30;14.00;;;;;;;;;;5029125;28;20430;-80
2024/01/12 00:41:20;;;;;;;27.87;15.43;;;;;;;;;;5027902;28;20186;-81
2024/01/12 00:43:46;;;;;;;27.57;15.50;;;;;;;;;;5032915;28;20214;-81
2024/01/12 00:46:12;;;;;;;27.40;15.83;;;;;;;;;;5028098;28;20197;-81
2024/01/12 00:48:38;;;;;;;26.07;15.20;;;;;;;;;;5012807;28;20580;-81
2024/01/12 00:51:04;;;;;;;27.00;15.60;;;;;;;;;;5020873;28;20232;-81
2024/01/12 00:53:30;;;;;;;28.23;15.43;;;;;;;;;;5023097;28;20222;-81
2024/01/12 00:55:57;;;;;;;29.77;15.73;;;;;;;;;;5014029;28;20559;-81
2024/01/12 00:58:23;;;;;;;23.93;14.17;;;;;;;;;;5005103;28;20282;-81
2024/01/12 01:00:49;;;;;;;26.23;14.30;;;;;;;;;;5022336;28;20203;-81
2024/01/12 01:03:15;;;;;;;33.13;17.83;;;;;;;;;;5001594;28;20680;-81
2024/01/12 01:05:42;;;;;;;31.30;16.97;;;;;;;;;;5011703;28;20571;-81
2024/01/12 01:08:08;;;;;;;29.73;16.30;;;;;;;;;;5017779;28;20441;-80
2024/01/12 01:10:34;;;;;;;32.53;15.63;;;;;;;;;;4912460;28;20269;-80
2024/01/12 01:13:00;;;;;;;28.53;15.10;;;;;;;;;;5023782;28;20304;-81
2024/01/12 01:15:26;;;;;;;31.73;17.90;;;;;;;;;;5014765;28;20286;-81
2024/01/12 01:17:53;;;;;;;32.20;17.60;;;;;;;;;;5031695;28;20281;-81
2024/01/12 01:20:19;;;;;;;30.70;16.90;;;;;;;;;;5035556;28;20186;-81
2024/01/12 01:22:45;;;;;;;31.33;17.50;;;;;;;;;;5036172;28;20190;-81
2024/01/12 01:25:12;;;;;;;29.77;17.20;;;;;;;;;;5025084;28;20267;-81
2024/01/12 01:27:38;;;;;;;31.87;17.60;;;;;;;;;;4989982;28;21189;-81
2024/01/12 01:30:04;;;;;;;29.50;16.37;;;;;;;;;;5030418;28;20197;-81
2024/01/12 01:32:30;;;;;;;30.60;16.77;;;;;;;;;;5017787;28;20441;-80
2024/01/12 01:34:56;;;;;;;29.47;16.00;;;;;;;;;;5037228;28;20182;-80
2024/01/12 01:37:23;;;;;;;32.60;16.83;;;;;;;;;;5033116;28;21044;-81
2024/01/12 01:39:49;;;;;;;27.37;15.80;;;;;;;;;;5000778;28;20914;-81
2024/01/12 01:42:15;;;;;;;27.60;16.10;;;;;;;;;;5026924;28;20454;-81
2024/01/12 01:44:41;;;;;;;29.33;15.50;;;;;;;;;;5002161;28;20793;-81
2024/01/12 01:47:07;;;;;;;32.57;19.00;;;;;;;;;;5032684;28;20186;-81
2024/01/12 01:49:34;;;;;;;31.07;17.63;;;;;;;;;;5034690;28;20639;-81
2024/01/12 01:52:00;;;;;;;34.53;16.90;;;;;;;;;;5030205;28;20190;-81
2024/01/12 01:54:27;;;;;;;36.50;19.77;;;;;;;;;;5017445;28;20487;-80
2024/01/12 01:56:54;;;;;;;34.53;18.53;;;;;;;;;;5034502;28;20913;-80
2024/01/12 01:59:20;;;;;;;28.80;16.93;;;;;;;;;;5016496;28;20182;-80
2024/01/12 02:01:46;;;;;;;31.97;17.03;;;;;;;;;;5012621;28;20465;-81
2024/01/12 02:04:12;;;;;;;36.77;18.00;;;;;;;;;;5026830;28;20456;-80
2024/01/12 02:06:39;;;;;;;28.87;16.07;;;;;;;;;;5015922;28;20527;-80
2024/01/12 02:09:05;;;;;;;31.17;16.83;;;;;;;;;;5038936;28;20524;-81
2024/01/12 02:11:31;;;;;;;30.10;15.27;;;;;;;;;;5033554;28;20436;-81
2024/01/12 02:13:58;;;;;;;26.10;15.00;;;;;;;;;;5028517;28;20487;-81
2024/01/12 02:16:24;;;;;;;29.13;16.73;;;;;;;;;;5018523;28;20458;-80
2024/01/12 02:18:50;;;;;;;29.33;15.03;;;;;;;;;;5029160;28;20444;-81
2024/01/12 02:21:16;;;;;;;26.13;14.70;;;;;;;;;;4965738;28;20186;-81
2024/01/12 02:23:42;;;;;;;30.27;15.87;;;;;;;;;;4956018;28;20214;-81
2024/01/12 02:26:08;;;;;;;29.43;14.57;;;;;;;;;;5028553;28;20496;-81
2024/01/12 02:28:35;;;;;;;27.43;14.87;;;;;;;;;;5037472;28;20426;-81
2024/01/12 02:31:02;;;;;;;28.23;15.00;;;;;;;;;;5016251;28;20421;-80
2024/01/12 02:33:28;;;;;;;25.77;14.40;;;;;;;;;;5029285;28;20465;-80
2024/01/12 02:35:54;;;;;;;27.73;14.90;;;;;;;;;;5027762;28;20457;-80
2024/01/12 02:38:20;;;;;;;26.10;14.77;;;;;;;;;;5010191;28;20429;-80
2024/01/12 02:40:46;;;;;;;26.30;15.20;;;;;;;;;;5030736;28;20409;-80
2024/01/12 02:43:12;;;;;;;27.07;14.97;;;;;;;;;;5023558;28;20536;-80
2024/01/12 02:45:38;;;;;;;27.07;15.00;;;;;;;;;;5024230;28;20807;-80
2024/01/12 02:48:05;;;;;;;25.93;14.27;;;;;;;;;;5020930;28;20437;-80
2024/01/12 02:50:31;;;;;;;28.70;14.97;;;;;;;;;;5035637;28;20198;-80
2024/01/12 02:52:57;;;;;;;24.70;14.27;;;;;;;;;;5040434;28;20810;-80
2024/01/12 02:55:23;;;;;;;31.57;15.20;;;;;;;;;;5032691;28;20425;-80
2024/01/12 02:57:49;;;;;;;24.17;14.07;;;;;;;;;;5032943;28;20740;-80
2024/01/12 03:00:15;;;;;;;24.13;13.27;;;;;;;;;;5032065;28;20215;-80
2024/01/12 03:02:41;;;;;;;20.43;12.67;;;;;;;;;;4970252;28;20433;-80
2024/01/12 03:05:08;;;;;;;23.77;13.63;;;;;;;;;;5028175;28;20430;-80
2024/01/12 03:07:34;;;;;;;26.70;15.03;;;;;;;;;;5029815;28;20487;-80
2024/01/12 03:10:01;;;;;;;26.93;15.13;;;;;;;;;;5038118;28;20572;-80
2024/01/12 03:12:27;;;;;;;28.90;15.20;;;;;;;;;;5007469;28;20445;-80
2024/01/12 03:14:53;;;;;;;28.00;14.43;;;;;;;;;;5006928;28;20219;-80
2024/01/12 03:17:20;;;;;;;24.00;13.27;;;;;;;;;;5031418;28;20471;-80
2024/01/12 03:19:46;;;;;;;26.80;14.67;;;;;;;;;;4950011;28;20442;-80
2024/01/12 03:22:12;;;;;;;23.57;14.00;;;;;;;;;;4989718;28;20182;-80
2024/01/12 03:24:38;;;;;;;23.90;13.47;;;;;;;;;;5017618;28;20218;-80
2024/01/12 03:27:05;;;;;;;28.80;14.80;;;;;;;;;;5032192;28;20452;-80
2024/01/12 03:29:31;;;;;;;28.67;14.77;;;;;;;;;;4924315;28;21873;-80
2024/01/12 03:31:57;;;;;;;25.50;13.10;;;;;;;;;;5041712;28;20222;-80
2024/01/12 03:34:23;;;;;;;25.50;13.47;;;;;;;;;;5017874;28;20462;-80
2024/01/12 03:36:49;;;;;;;29.47;14.87;;;;;;;;;;5000076;28;20516;-78
2024/01/12 03:39:15;;;;;;;28.80;16.27;;;;;;;;;;5022661;28;20317;-79
2024/01/12 03:41:41;;;;;;;26.67;14.53;;;;;;;;;;5014461;28;20418;-79
2024/01/12 03:44:08;;;;;;;26.53;15.13;;;;;;;;;;5028747;28;20502;-79
2024/01/12 03:46:34;;;;;;;28.93;14.07;;;;;;;;;;4976691;28;21586;-80
2024/01/12 03:49:00;;;;;;;28.60;16.00;;;;;;;;;;5010578;28;20430;-80
2024/01/12 03:51:26;;;;;;;30.03;15.73;;;;;;;;;;5030208;28;20462;-80
2024/01/12 03:53:52;;;;;;;27.90;16.43;;;;;;;;;;5034268;28;20486;-79
2024/01/12 03:56:18;;;;;;;27.87;15.50;;;;;;;;;;5021022;28;20489;-79
2024/01/12 03:58:45;;;;;;;26.73;14.90;;;;;;;;;;5013765;28;20462;-79
2024/01/12 04:01:11;;;;;;;26.13;14.60;;;;;;;;;;5019919;28;20492;-80
2024/01/12 04:03:37;;;;;;;25.57;15.10;;;;;;;;;;5019502;28;20615;-80
2024/01/12 04:06:08;;;;;;;27.70;15.47;;;;;;;;;;4976013;28;20483;-80
2024/01/12 04:08:34;;;;;;;26.27;14.67;;;;;;;;;;5015046;28;20495;-80
2024/01/12 04:11:00;;;;;;;25.63;13.93;;;;;;;;;;5029602;28;20457;-80
2024/01/12 04:13:26;;;;;;;26.60;14.40;;;;;;;;;;5035209;28;20460;-80
2024/01/12 04:15:53;;;;;;;27.13;14.57;;;;;;;;;;5033116;28;20448;-80
2024/01/12 04:18:20;;;;;;;28.20;15.77;;;;;;;;;;5015627;28;20441;-80
2024/01/12 04:20:46;;;;;;;26.63;14.00;;;;;;;;;;5032530;28;20425;-80
2024/01/12 04:23:12;;;;;;;25.67;14.77;;;;;;;;;;4971131;28;20477;-80
2024/01/12 04:25:38;;;;;;;25.77;14.43;;;;;;;;;;5034180;28;20447;-80
2024/01/12 04:28:05;;;;;;;25.77;14.93;;;;;;;;;;5032328;28;20527;-80
2024/01/12 04:30:31;;;;;;;26.57;15.47;;;;;;;;;;5010936;28;20432;-80
2024/01/12 04:32:57;;;;;;;28.00;15.60;;;;;;;;;;5012931;28;20548;-80
2024/01/12 04:35:23;;;;;;;27.80;16.67;;;;;;;;;;5034534;28;20426;-80
2024/01/12 04:37:50;;;;;;;29.23;17.03;;;;;;;;;;5023714;28;20492;-79
2024/01/12 04:40:16;;;;;;;28.83;15.83;;;;;;;;;;5008604;28;20438;-80
2024/01/12 04:42:42;;;;;;;28.70;15.63;;;;;;;;;;5029611;28;20440;-80
2024/01/12 04:45:08;;;;;;;25.13;14.93;;;;;;;;;;5004757;28;20853;-80
2024/01/12 04:47:34;;;;;;;27.63;14.47;;;;;;;;;;5030362;28;20465;-79
2024/01/12 04:50:00;;;;;;;27.60;15.23;;;;;;;;;;4994922;28;20449;-79
2024/01/12 04:52:27;;;;;;;27.00;14.43;;;;;;;;;;5031030;28;20519;-80
2024/01/12 04:54:53;;;;;;;25.17;14.60;;;;;;;;;;5034207;28;20472;-80
2024/01/12 04:57:19;;;;;;;27.40;14.17;;;;;;;;;;5035564;28;20532;-80
2024/01/12 04:59:46;;;;;;;26.33;13.97;;;;;;;;;;5032358;28;20513;-80
2024/01/12 05:02:12;;;;;;;25.33;13.70;;;;;;;;;;5025921;28;20880;-80
2024/01/12 05:04:38;;;;;;;24.93;14.00;;;;;;;;;;5028934;28;20996;-80
2024/01/12 05:07:04;;;;;;;26.70;14.93;;;;;;;;;;5030701;28;20968;-80
2024/01/12 05:09:30;;;;;;;25.20;15.63;;;;;;;;;;5030224;28;20447;-80
2024/01/12 05:11:59;;;;;;;28.03;16.13;;;;;;;;;;5026992;28;20666;-80
2024/01/12 05:14:26;;;;;;;32.33;17.00;;;;;;;;;;5030355;28;20245;-81
2024/01/12 05:16:52;;;;;;;29.77;17.43;;;;;;;;;;5010941;28;20482;-81
2024/01/12 05:19:18;;;;;;;28.20;16.13;;;;;;;;;;5042405;28;20441;-80
2024/01/12 05:21:44;;;;;;;31.40;16.97;;;;;;;;;;5025941;28;20472;-80
2024/01/12 05:24:10;;;;;;;30.83;16.90;;;;;;;;;;5037925;28;20824;-80
2024/01/12 05:26:37;;;;;;;28.93;16.67;;;;;;;;;;5018552;28;20460;-80
2024/01/12 05:29:03;;;;;;;26.53;15.40;;;;;;;;;;5035647;28;20592;-80
2024/01/12 05:31:29;;;;;;;26.53;15.37;;;;;;;;;;5032276;28;20445;-80
2024/01/12 05:33:55;;;;;;;24.87;14.23;;;;;;;;;;5033028;28;20440;-80
2024/01/12 05:36:22;;;;;;;26.23;14.60;;;;;;;;;;5028213;28;20461;-80
2024/01/12 05:38:50;;;;;;;23.57;14.80;;;;;;;;;;5012261;28;20458;-81
2024/01/12 05:41:17;;;;;;;28.40;16.40;;;;;;;;;;5028197;28;20877;-81
2024/01/12 05:43:43;;;;;;;31.43;17.37;;;;;;;;;;5027167;28;20879;-80
2024/01/12 05:46:09;;;;;;;26.87;15.23;;;;;;;;;;4949846;28;20577;-81
2024/01/12 05:48:35;;;;;;;26.20;15.00;;;;;;;;;;5025370;28;20471;-80
2024/01/12 05:51:01;;;;;;;27.33;15.13;;;;;;;;;;5029064;28;20748;-80
2024/01/12 05:53:27;;;;;;;33.30;17.00;;;;;;;;;;5039947;28;20538;-80
2024/01/12 05:55:54;;;;;;;31.23;16.63;;;;;;;;;;5017317;28;20716;-80
2024/01/12 05:58:20;;;;;;;28.70;15.57;;;;;;;;;;5029385;28;20433;-80
2024/01/12 06:00:47;;;;;;;24.87;14.77;;;;;;;;;;4974502;28;20511;-80
2024/01/12 06:03:14;;;;;;;35.77;16.63;;;;;;;;;;5026887;28;20540;-80
2024/01/12 06:05:42;;;;;;;28.57;15.70;;;;;;;;;;5005310;28;20953;-80
2024/01/12 06:08:08;;;;;;;30.00;15.77;;;;;;;;;;4998844;28;20430;-81
2024/01/12 06:10:34;;;;;;;27.27;17.00;;;;;;;;;;5035528;28;20997;-80
2024/01/12 06:13:00;;;;;;;27.27;15.20;;;;;;;;;;4999225;28;20606;-80
2024/01/12 06:15:26;;;;;;;34.50;17.33;;;;;;;;;;5016892;28;20434;-80
2024/01/12 06:17:52;;;;;;;24.97;13.77;;;;;;;;;;5026230;28;20462;-80
2024/01/12 06:20:18;;;;;;;27.03;14.57;;;;;;;;;;5013245;28;20484;-81
2024/01/12 06:22:44;;;;;;;22.80;13.70;;;;;;;;;;5013261;28;20429;-80
2024/01/12 06:25:11;;;;;;;24.58;15.52;;;;;;;;;;5014227;28;20966;-80
2024/01/12 06:27:37;;;;;;;21.00;13.33;;;;;;;;;;5017336;28;20187;-81
2024/01/12 06:30:03;;;;;;;20.53;12.60;;;;;;;;;;5034071;28;20792;-80
2024/01/12 06:32:29;;;;;;;21.50;13.90;;;;;;;;;;5029959;28;20179;-80
2024/01/12 06:34:56;;;;;;;19.30;13.07;;;;;;;;;;4962741;28;20210;-80
2024/01/12 06:37:22;;;;;;;20.80;12.90;;;;;;;;;;5007761;28;20815;-81
2024/01/12 06:39:49;;;;;;;18.87;12.37;;;;;;;;;;5033566;28;20191;-81
2024/01/12 06:42:15;;;;;;;20.40;13.03;;;;;;;;;;5033582;28;20525;-81
2024/01/12 06:44:41;;;;;;;20.37;12.70;;;;;;;;;;5012502;28;20469;-80
2024/01/12 06:47:08;;;;;;;21.17;13.98;;;;;;;;;;5024338;28;20423;-81
2024/01/12 06:49:34;;;;;;;19.43;13.40;;;;;;;;;;4823973;28;21046;-81
2024/01/12 06:52:01;;;;;;;21.47;15.03;;;;;;;;;;5010682;28;20531;-81
2024/01/12 06:54:27;;;;;;;22.83;14.57;;;;;;;;;;5031003;28;20284;-80
2024/01/12 06:56:56;;;;;;;20.47;13.17;;;;;;;;;;5032443;28;20297;-81
2024/01/12 06:59:22;;;;;;;23.63;14.07;;;;;;;;;;5005174;28;20856;-81
2024/01/12 07:01:48;;;;;;;20.40;12.50;;;;;;;;;;5000490;28;20203;-79
2024/01/12 07:04:14;;;;;;;20.40;13.37;;;;;;;;;;5022038;28;20234;-81
2024/01/12 07:06:40;;;;;;;20.40;12.47;;;;;;;;;;4996122;28;20191;-81
2024/01/12 07:09:11;;;;;;;21.13;13.07;;;;;;;;;;5019997;28;20183;-80
2024/01/12 07:11:40;;;;;;;19.73;13.10;;;;;;;;;;4987909;28;20571;-82
2024/01/12 07:14:06;;;;;;;22.20;13.70;;;;;;;;;;5011795;28;20201;-81
2024/01/12 07:16:32;;;;;;;21.87;14.17;;;;;;;;;;5016869;28;20475;-83
2024/01/12 07:18:58;;;;;;;23.87;15.00;;;;;;;;;;4945287;28;20183;-80
2024/01/12 07:21:24;;;;;;;22.17;13.47;;;;;;;;;;5029361;28;20187;-81
2024/01/12 07:23:51;;;;;;;21.97;13.77;;;;;;;;;;5007108;28;20292;-81
2024/01/12 07:26:17;;;;;;;23.20;14.10;;;;;;;;;;5012053;28;20676;-81
2024/01/12 07:28:43;;;;;;;24.27;14.57;;;;;;;;;;5011514;28;20198;-81
2024/01/12 07:31:09;;;;;;;23.07;14.10;;;;;;;;;;5025984;28;20279;-80
2024/01/12 07:33:36;;;;;;;19.70;12.93;;;;;;;;;;5010802;28;20310;-80
2024/01/12 07:36:02;;;;;;;22.13;14.23;;;;;;;;;;5025676;28;20599;-79
2024/01/12 07:38:29;;;;;;;22.73;14.23;;;;;;;;;;4994641;28;20181;-79
2024/01/12 07:40:55;;;;;;;22.07;14.40;;;;;;;;;;5025908;28;20588;-82
2024/01/12 07:43:21;;;;;;;22.50;14.57;;;;;;;;;;5027082;28;20210;-79
2024/01/12 07:45:47;;;;;;;22.33;13.90;;;;;;;;;;5008219;28;20279;-82
2024/01/12 07:48:14;;;;;;;23.63;15.03;;;;;;;;;;5023897;28;20217;-82
2024/01/12 07:50:40;;;;;;;24.93;15.37;;;;;;;;;;5006387;28;20183;-81
2024/01/12 07:53:06;;;;;;;24.40;15.23;;;;;;;;;;5010894;28;20694;-84
2024/01/12 07:55:32;;;;;;;26.70;16.53;;;;;;;;;;5025882;28;20191;-82
2024/01/12 07:57:59;;;;;;;25.37;15.87;;;;;;;;;;5035709;28;20274;-80
2024/01/12 08:00:25;;;;;;;26.37;16.90;;;;;;;;;;5029920;28;20190;-82
2024/01/12 08:02:52;;;;;;;24.63;15.60;;;;;;;;;;4999686;28;20200;-82
2024/01/12 08:05:19;;;;;;;25.37;15.77;;;;;;;;;;5010474;28;20417;-81
2024/01/12 08:07:46;;;;;;;26.60;15.60;;;;;;;;;;5012032;28;20486;-81
2024/01/12 08:10:12;;;;;;;25.27;14.93;;;;;;;;;;5013336;28;20503;-81
2024/01/12 08:12:38;;;;;;;24.50;15.57;;;;;;;;;;5009855;28;20643;-82
2024/01/12 08:15:04;;;;;;;24.57;15.90;;;;;;;;;;5028653;28;20246;-83
2024/01/12 08:17:31;;;;;;;23.90;15.40;;;;;;;;;;5007250;28;20221;-83
2024/01/12 08:19:57;;;;;;;23.80;15.57;;;;;;;;;;5026524;28;20184;-84
2024/01/12 08:22:24;;;;;;;25.07;15.50;;;;;;;;;;5009724;28;20197;-83
2024/01/12 08:24:50;;;;;;;25.53;15.33;;;;;;;;;;5011426;28;21080;-84
2024/01/12 08:27:16;;;;;;;26.60;16.13;;;;;;;;;;4993735;28;20234;-83
2024/01/12 08:29:42;;;;;;;25.13;15.17;;;;;;;;;;5028190;28;20199;-83
2024/01/12 08:32:08;;;;;;;25.13;14.57;;;;;;;;;;5028211;28;20237;-83
2024/01/12 08:34:34;;;;;;;21.30;15.33;;;;;;;;;;5008866;28;20210;-83
2024/01/12 08:37:01;;;;;;;25.20;14.77;;;;;;;;;;5010755;28;20217;-84
2024/01/12 08:39:27;;;;;;;23.90;14.80;;;;;;;;;;5024342;28;20182;-81
2024/01/12 08:41:53;;;;;;;20.40;13.97;;;;;;;;;;5021519;28;20195;-84
2024/01/12 08:44:20;;;;;;;23.60;15.47;;;;;;;;;;5006403;28;20214;-85
2024/01/12 08:46:46;;;;;;;20.47;14.40;;;;;;;;;;4992476;28;20190;-81
2024/01/12 08:49:12;;;;;;;21.93;14.30;;;;;;;;;;5027751;28;20796;-81
2024/01/12 08:51:38;;;;;;;24.10;13.80;;;;;;;;;;5011301;28;20493;-81
2024/01/12 08:54:05;;;;;;;23.73;14.50;;;;;;;;;;5026877;28;20296;-82
2024/01/12 08:56:32;;;;;;;23.13;13.57;;;;;;;;;;5026120;28;20218;-82
2024/01/12 08:58:59;;;;;;;23.37;14.50;;;;;;;;;;5025936;28;20189;-82
2024/01/12 09:01:25;;;;;;;23.90;15.20;;;;;;;;;;4993612;28;20198;-82
2024/01/12 09:03:51;;;;;;;21.87;13.97;;;;;;;;;;5027060;28;20206;-82
2024/01/12 09:06:17;;;;;;;25.10;15.83;;;;;;;;;;5009615;28;20998;-82
2024/01/12 09:08:43;;;;;;;22.77;14.37;;;;;;;;;;5026192;28;20233;-82
2024/01/12 09:11:11;;;;;;;26.00;15.43;;;;;;;;;;5025988;28;20568;-83
2024/01/12 09:13:38;;;;;;;25.13;15.00;;;;;;;;;;5011724;28;20217;-82
2024/01/12 09:16:04;;;;;;;24.23;14.53;;;;;;;;;;4992318;28;20201;-81
2024/01/12 09:18:31;;;;;;;23.13;14.33;;;;;;;;;;5012194;28;20266;-82
2024/01/12 09:20:57;;;;;;;25.90;14.67;;;;;;;;;;5031764;28;20198;-81
2024/01/12 09:23:23;;;;;;;25.93;14.83;;;;;;;;;;5019973;28;20206;-80
2024/01/12 09:25:51;;;;;;;25.07;15.67;;;;;;;;;;5027499;28;20183;-82
2024/01/12 09:28:17;;;;;;;23.90;14.83;;;;;;;;;;5000489;28;20670;-83
2024/01/12 09:30:44;;;;;;;26.50;15.33;;;;;;;;;;5010146;28;20206;-81
2024/01/12 09:33:10;;;;;;;24.27;14.63;;;;;;;;;;5025555;28;20681;-82
2024/01/12 09:35:36;;;;;;;22.40;14.20;;;;;;;;;;4994054;28;20190;-83
2024/01/12 09:38:02;;;;;;;21.03;13.07;;;;;;;;;;5027200;28;20363;-82
2024/01/12 09:40:29;;;;;;;23.03;14.17;;;;;;;;;;5027751;28;20191;-81
2024/01/12 09:42:57;;;;;;;22.77;13.93;;;;;;;;;;5029778;28;20671;-82
2024/01/12 09:45:24;;;;;;;23.30;13.87;;;;;;;;;;5010386;28;20224;-81
2024/01/12 09:47:50;;;;;;;24.40;13.80;;;;;;;;;;5028951;28;20194;-83
2024/01/12 09:50:16;;;;;;;23.40;13.87;;;;;;;;;;5013079;28;20265;-82
2024/01/12 09:52:42;;;;;;;21.80;13.40;;;;;;;;;;5034699;28;20209;-82
2024/01/12 09:55:09;;;;;;;23.17;14.27;;;;;;;;;;5039658;28;20182;-82
2024/01/12 09:57:35;;;;;;;24.40;14.13;;;;;;;;;;5038954;28;20294;-82
2024/01/12 10:00:03;;;;;;;22.13;12.97;;;;;;;;;;5037479;28;20198;-83
2024/01/12 10:02:34;;;;;;;20.73;12.40;;;;;;;;;;5037518;28;20258;-82
2024/01/12 10:05:00;;;;;;;22.60;13.63;;;;;;;;;;5014896;28;20674;-82
2024/01/12 10:07:27;;;;;;;21.47;12.40;;;;;;;;;;5034039;28;20194;-82
2024/01/12 10:09:53;;;;;;;20.97;13.33;;;;;;;;;;5037630;28;20195;-82
2024/01/12 10:12:19;;;;;;;21.40;12.60;;;;;;;;;;5019085;28;20225;-82
2024/01/12 10:14:46;;;;;;;21.23;12.57;;;;;;;;;;5042280;28;20210;-82
2024/01/12 10:17:13;;;;;;;20.60;12.83;;;;;;;;;;5041296;28;20206;-82
2024/01/12 10:19:41;;;;;;;19.57;12.50;;;;;;;;;;5024051;28;20314;-82
2024/01/12 10:22:12;;;;;;;20.10;12.20;;;;;;;;;;5035045;28;20183;-82
2024/01/12 10:24:38;;;;;;;19.63;11.97;;;;;;;;;;5034961;28;20201;-81
2024/01/12 10:27:08;;;;;;;168.97;77.80;;;;;;;;;;5034633;28;20241;-81
2024/01/12 10:29:38;;;;;;;123.47;49.90;;;;;;;;;;5017990;28;20597;-82
2024/01/12 10:32:05;;;;;;;47.57;23.70;;;;;;;;;;5017385;28;20190;-82
2024/01/12 10:34:33;;;;;;;30.03;17.03;;;;;;;;;;5017302;28;20206;-82
2024/01/12 10:36:59;;;;;;;25.87;14.87;;;;;;;;;;5033445;28;20214;-82
2024/01/12 10:39:27;;;;;;;21.87;13.03;;;;;;;;;;5032099;28;20182;-82
2024/01/12 10:41:56;;;;;;;20.67;13.70;;;;;;;;;;5017419;28;20594;-83
2024/01/12 10:44:26;;;;;;;20.40;13.63;;;;;;;;;;5004331;28;20202;-83
2024/01/12 10:46:54;;;;;;;20.33;14.70;;;;;;;;;;5027606;28;20187;-82
2024/01/12 10:49:26;;;;;;;18.93;12.53;;;;;;;;;;5035355;28;20186;-83
2024/01/12 10:51:58;;;;;;;17.03;11.03;;;;;;;;;;5034519;28;20190;-82
2024/01/12 10:54:34;;;;;;;15.70;10.57;;;;;;;;;;5033080;28;20260;-82
2024/01/12 10:57:01;;;;;;;41.07;27.60;;;;;;;;;;5015490;28;20720;-83
2024/01/12 10:59:28;;;;;;;21.93;15.47;;;;;;;;;;5016762;28;20186;-82
2024/01/12 11:01:54;;;;;;;18.27;11.07;;;;;;;;;;5032001;28;20198;-82
2024/01/12 11:04:23;;;;;;;14.43;9.73;;;;;;;;;;5000795;28;20887;-82
2024/01/12 11:06:55;;;;;;;12.87;8.90;;;;;;;;;;5015124;28;20608;-82
2024/01/12 11:09:21;;;;;;;11.03;7.33;;;;;;;;;;5008900;28;20271;-82
2024/01/12 11:11:52;;;;;;;13.07;8.63;;;;;;;;;;5031070;28;20214;-83
2024/01/12 11:14:20;;;;;;;11.30;7.90;;;;;;;;;;5030859;28;20206;-82
2024/01/12 11:16:46;;;;;;;12.93;9.50;;;;;;;;;;5030947;28;20215;-82
2024/01/12 11:19:13;;;;;;;11.70;8.27;;;;;;;;;;5031342;28;20237;-81
2024/01/12 11:21:40;;;;;;;10.83;7.53;;;;;;;;;;5026772;28;20686;-82
2024/01/12 11:24:07;;;;;;;13.97;9.40;;;;;;;;;;5031316;28;20274;-81
2024/01/12 11:26:33;;;;;;;12.13;8.30;;;;;;;;;;5009001;28;20190;-82
2024/01/12 11:28:59;;;;;;;13.30;8.67;;;;;;;;;;5012189;28;20190;-78
2024/01/12 11:31:29;;;;;;;13.80;9.07;;;;;;;;;;5026846;28;20190;-77
2024/01/12 11:34:02;;;;;;;15.40;9.83;;;;;;;;;;5028332;28;20305;-79
2024/01/12 11:36:31;;;;;;;15.67;10.10;;;;;;;;;;5014854;28;20217;-82
2024/01/12 11:39:01;;;;;;;16.27;10.00;;;;;;;;;;5019204;28;20191;-82
2024/01/12 11:41:28;;;;;;;15.53;9.93;;;;;;;;;;5010601;28;20187;-77
2024/01/12 11:43:55;;;;;;;15.60;10.00;;;;;;;;;;5010553;28;20202;-77
2024/01/12 11:46:23;;;;;;;15.80;10.73;;;;;;;;;;5025973;28;20186;-78
2024/01/12 11:48:50;;;;;;;16.13;10.70;;;;;;;;;;5026425;28;20190;-78
2024/01/12 11:51:24;;;;;;;16.60;10.70;;;;;;;;;;5026197;28;20201;-77
2024/01/12 11:53:56;;;;;;;17.33;10.97;;;;;;;;;;5026801;28;20198;-77
2024/01/12 11:56:22;;;;;;;17.10;11.13;;;;;;;;;;5026796;28;20206;-78
2024/01/12 11:58:48;;;;;;;19.73;11.90;;;;;;;;;;5025998;28;20170;-77
2024/01/12 12:01:15;;;;;;;17.03;11.20;;;;;;;;;;5024282;28;20284;-80
2024/01/12 12:03:42;;;;;;;17.83;11.43;;;;;;;;;;5023892;28;20316;-80
2024/01/12 12:06:11;;;;;;;16.73;10.93;;;;;;;;;;5022429;28;20557;-77
2024/01/12 12:08:39;;;;;;;20.50;12.43;;;;;;;;;;5009338;28;20187;-77
2024/01/12 12:11:06;;;;;;;19.00;11.73;;;;;;;;;;5021839;28;20186;-77
2024/01/12 12:13:37;;;;;;;19.77;12.13;;;;;;;;;;5006990;28;20218;-77
2024/01/12 12:16:03;;;;;;;20.00;12.50;;;;;;;;;;5028996;28;20613;-77
2024/01/12 12:18:30;;;;;;;22.23;12.10;;;;;;;;;;5029942;28;20573;-78
2024/01/12 12:21:03;;;;;;;18.17;11.47;;;;;;;;;;5024487;28;20293;-77
2024/01/12 12:23:30;;;;;;;21.13;13.40;;;;;;;;;;5008839;28;20392;-78
2024/01/12 12:25:56;;;;;;;23.67;13.30;;;;;;;;;;5009276;28;20661;-78
2024/01/12 12:28:22;;;;;;;20.80;13.17;;;;;;;;;;5023483;28;20178;-77
2024/01/12 12:30:51;;;;;;;22.43;12.83;;;;;;;;;;5009852;28;20468;-78
2024/01/12 12:33:18;;;;;;;20.20;12.50;;;;;;;;;;5026268;28;20203;-78
2024/01/12 12:35:44;;;;;;;22.57;14.37;;;;;;;;;;5020220;28;20206;-78
2024/01/12 12:38:10;;;;;;;20.60;12.70;;;;;;;;;;5006414;28;20293;-78
2024/01/12 12:40:36;;;;;;;22.70;13.07;;;;;;;;;;5022127;28;20183;-75
2024/01/12 12:43:03;;;;;;;26.67;17.10;;;;;;;;;;5024402;28;20282;-79
2024/01/12 12:45:29;;;;;;;28.30;17.73;;;;;;;;;;5028785;28;20692;-78
2024/01/12 12:47:55;;;;;;;31.17;18.93;;;;;;;;;;5032586;28;20218;-78
2024/01/12 12:50:21;;;;;;;27.87;17.63;;;;;;;;;;5029862;28;20190;-80
2024/01/12 12:52:48;;;;;;;28.03;17.10;;;;;;;;;;5029807;28;20190;-81
2024/01/12 12:55:14;;;;;;;27.60;17.93;;;;;;;;;;5022158;28;20190;-80
2024/01/12 12:57:40;;;;;;;28.40;16.83;;;;;;;;;;5027935;28;20260;-77
2024/01/12 13:00:09;;;;;;;30.67;20.23;;;;;;;;;;5024004;28;20237;-77
2024/01/12 13:02:39;;;;;;;30.17;18.90;;;;;;;;;;5010767;28;20565;-78
2024/01/12 13:05:06;;;;;;;29.67;18.70;;;;;;;;;;5014428;28;20545;-78
2024/01/12 13:07:32;;;;;;;29.17;18.67;;;;;;;;;;5029073;28;20252;-76
2024/01/12 13:09:59;;;;;;;30.77;19.10;;;;;;;;;;5027626;28;20186;-76
2024/01/12 13:12:26;;;;;;;30.00;19.37;;;;;;;;;;5022571;28;20512;-78
2024/01/12 13:14:52;;;;;;;33.67;20.17;;;;;;;;;;5017189;28;20222;-75
2024/01/12 13:17:20;;;;;;;35.40;21.07;;;;;;;;;;5031012;28;20648;-79
2024/01/12 13:19:46;;;;;;;29.50;19.87;;;;;;;;;;5038638;28;20302;-78
2024/01/12 13:22:12;;;;;;;30.40;18.73;;;;;;;;;;5007591;28;20195;-78
2024/01/12 13:24:38;;;;;;;28.60;19.33;;;;;;;;;;5027625;28;20241;-77
2024/01/12 13:27:04;;;;;;;29.67;18.80;;;;;;;;;;5031168;28;20221;-75
2024/01/12 13:29:31;;;;;;;31.27;19.57;;;;;;;;;;5028308;28;20293;-77
2024/01/12 13:31:57;;;;;;;31.63;19.87;;;;;;;;;;5029022;28;20210;-76
2024/01/12 13:34:24;;;;;;;30.50;19.93;;;;;;;;;;5028641;28;20210;-77
2024/01/12 13:36:50;;;;;;;30.70;19.30;;;;;;;;;;5029916;28;20202;-76
2024/01/12 13:39:16;;;;;;;34.07;20.17;;;;;;;;;;5025829;28;20186;-77
2024/01/12 13:41:42;;;;;;;30.33;17.63;;;;;;;;;;5023897;28;20296;-77
2024/01/12 13:44:08;;;;;;;27.37;17.97;;;;;;;;;;5029463;28;20864;-77
2024/01/12 13:46:35;;;;;;;33.60;19.80;;;;;;;;;;5025951;28;20759;-77
2024/01/12 13:49:01;;;;;;;30.30;18.50;;;;;;;;;;5025948;28;20183;-77
2024/01/12 13:51:27;;;;;;;27.57;18.47;;;;;;;;;;5026872;28;20216;-75
2024/01/12 13:53:54;;;;;;;28.07;17.73;;;;;;;;;;5028522;28;20211;-77
2024/01/12 13:56:21;;;;;;;29.80;19.10;;;;;;;;;;5027609;28;20698;-77
2024/01/12 13:58:47;;;;;;;26.57;17.67;;;;;;;;;;5030812;28;20179;-79
2024/01/12 14:01:14;;;;;;;29.07;17.67;;;;;;;;;;5038404;28;20206;-80
2024/01/12 14:03:41;;;;;;;27.00;17.90;;;;;;;;;;5018894;28;20203;-80
2024/01/12 14:06:07;;;;;;;31.07;18.03;;;;;;;;;;5034055;28;20198;-80
2024/01/12 14:08:35;;;;;;;27.93;18.13;;;;;;;;;;5016517;28;20182;-80
2024/01/12 14:11:01;;;;;;;27.73;17.37;;;;;;;;;;5032419;28;20179;-80
2024/01/12 14:13:27;;;;;;;37.17;23.93;;;;;;;;;;5032971;28;20222;-80
2024/01/12 14:15:53;;;;;;;41.60;26.23;;;;;;;;;;5046701;28;20573;-80